EDLI 020125Z 28005KT 9999 ///017 04/03 Q1018

Wind aktuell: 280° mit 5 kt

Wind 10 Minuten extrem:

260° bis 310° mit 4 kt bis 7 kt

Seitenwindkomponente: 1.0 kt

Wolkengrenze 1: 1500

Wolkengrenze 2: keine

Wolkengrenze 3: keine

Sichtweite: 20.000 Meter

Vorheriges Wetter:

Aktuelles Wetter:

Druckhöhe: 319 ft

Dichtehöhe: -924 ft

Temperatur: 4.0 °C

Taupunkt: 3.5 °C

Luftfeuchtigkeit: 96%

QNH: 1018 hPa 

QFE: 1001 hPa

Diese Daten werden automatisch ermittelt bzw. übertragen und sind nicht geprüft. Für die Richtigkeit wird daher keine Gewähr übernommen. Sie ersetzen im übrigen nicht die Flugwetterberatung. Alle Zeitangaben beziehen sich auf UTC. Die Seite wird einmal die Minute aktualisiert! Sollten Sie ein ältere Seite haben, so drücken Sie bitte auf den Reload Button Ihres Browsers!